sensor_id;sensor_type;location;lat;lon;timestamp;P1;durP1;ratioP1;P2;durP2;ratioP2
61356;SDS011;47227;46.752;23.576;2024-03-02T00:01:55;7.50;;;4.10;;
61356;SDS011;47227;46.752;23.576;2024-03-02T00:04:24;7.10;;;3.90;;
61356;SDS011;47227;46.752;23.576;2024-03-02T00:06:52;4.60;;;4.10;;
61356;SDS011;47227;46.752;23.576;2024-03-02T00:09:23;5.90;;;3.50;;
61356;SDS011;47227;46.752;23.576;2024-03-02T00:11:52;6.30;;;3.90;;
61356;SDS011;47227;46.752;23.576;2024-03-02T00:14:20;8.70;;;4.50;;
61356;SDS011;47227;46.752;23.576;2024-03-02T00:16:49;8.90;;;3.90;;
61356;SDS011;47227;46.752;23.576;2024-03-02T00:19:19;7.60;;;4.20;;
61356;SDS011;47227;46.752;23.576;2024-03-02T00:21:48;5.10;;;3.50;;
61356;SDS011;47227;46.752;23.576;2024-03-02T00:27:03;7.90;;;4.10;;
61356;SDS011;47227;46.752;23.576;2024-03-02T00:29:32;10.70;;;4.00;;
61356;SDS011;47227;46.752;23.576;2024-03-02T00:32:01;7.50;;;4.40;;
61356;SDS011;47227;46.752;23.576;2024-03-02T00:34:30;8.40;;;4.00;;
61356;SDS011;47227;46.752;23.576;2024-03-02T00:36:58;6.20;;;3.80;;
61356;SDS011;47227;46.752;23.576;2024-03-02T00:39:28;7.80;;;3.70;;
61356;SDS011;47227;46.752;23.576;2024-03-02T00:41:58;7.40;;;4.00;;
61356;SDS011;47227;46.752;23.576;2024-03-02T00:44:26;8.10;;;4.30;;
61356;SDS011;47227;46.752;23.576;2024-03-02T00:46:57;7.90;;;4.00;;
61356;SDS011;47227;46.752;23.576;2024-03-02T00:49:27;5.70;;;4.00;;
61356;SDS011;47227;46.752;23.576;2024-03-02T00:51:56;7.60;;;3.70;;
61356;SDS011;47227;46.752;23.576;2024-03-02T00:54:25;7.40;;;4.00;;
61356;SDS011;47227;46.752;23.576;2024-03-02T00:56:56;8.70;;;4.50;;
61356;SDS011;47227;46.752;23.576;2024-03-02T00:59:26;5.80;;;4.40;;
61356;SDS011;47227;46.752;23.576;2024-03-02T01:01:54;6.80;;;4.20;;
61356;SDS011;47227;46.752;23.576;2024-03-02T01:04:23;7.60;;;3.90;;
61356;SDS011;47227;46.752;23.576;2024-03-02T01:06:51;7.80;;;3.50;;
61356;SDS011;47227;46.752;23.576;2024-03-02T01:09:20;4.60;;;3.30;;
61356;SDS011;47227;46.752;23.576;2024-03-02T01:11:49;7.70;;;4.10;;
61356;SDS011;47227;46.752;23.576;2024-03-02T01:14:17;6.80;;;3.90;;
61356;SDS011;47227;46.752;23.576;2024-03-02T01:16:45;6.30;;;3.90;;
61356;SDS011;47227;46.752;23.576;2024-03-02T01:19:14;9.40;;;4.00;;
61356;SDS011;47227;46.752;23.576;2024-03-02T01:21:43;9.60;;;4.60;;
61356;SDS011;47227;46.752;23.576;2024-03-02T01:24:12;7.50;;;4.10;;
61356;SDS011;47227;46.752;23.576;2024-03-02T01:26:41;8.70;;;3.90;;
61356;SDS011;47227;46.752;23.576;2024-03-02T01:29:10;7.30;;;3.90;;
61356;SDS011;47227;46.752;23.576;2024-03-02T01:31:38;7.20;;;3.90;;
61356;SDS011;47227;46.752;23.576;2024-03-02T01:34:10;5.90;;;3.80;;
61356;SDS011;47227;46.752;23.576;2024-03-02T01:36:38;6.30;;;3.70;;
61356;SDS011;47227;46.752;23.576;2024-03-02T01:39:07;4.80;;;3.70;;
61356;SDS011;47227;46.752;23.576;2024-03-02T01:41:37;4.30;;;3.20;;
61356;SDS011;47227;46.752;23.576;2024-03-02T01:44:06;5.60;;;3.50;;
61356;SDS011;47227;46.752;23.576;2024-03-02T01:46:35;6.70;;;4.10;;
61356;SDS011;47227;46.752;23.576;2024-03-02T01:49:04;7.50;;;3.90;;
61356;SDS011;47227;46.752;23.576;2024-03-02T01:51:32;8.30;;;3.80;;
61356;SDS011;47227;46.752;23.576;2024-03-02T01:54:01;7.10;;;3.80;;
61356;SDS011;47227;46.752;23.576;2024-03-02T01:56:30;11.20;;;4.50;;
61356;SDS011;47227;46.752;23.576;2024-03-02T01:58:58;6.60;;;3.70;;
61356;SDS011;47227;46.752;23.576;2024-03-02T02:01:27;9.40;;;3.70;;
61356;SDS011;47227;46.752;23.576;2024-03-02T02:03:55;5.00;;;3.80;;
61356;SDS011;47227;46.752;23.576;2024-03-02T02:06:24;8.90;;;4.30;;
61356;SDS011;47227;46.752;23.576;2024-03-02T02:08:53;11.30;;;3.60;;
61356;SDS011;47227;46.752;23.576;2024-03-02T02:11:21;7.10;;;3.60;;
61356;SDS011;47227;46.752;23.576;2024-03-02T02:13:50;7.60;;;3.60;;
61356;SDS011;47227;46.752;23.576;2024-03-02T02:16:18;6.60;;;3.80;;
61356;SDS011;47227;46.752;23.576;2024-03-02T02:18:46;8.60;;;3.80;;
61356;SDS011;47227;46.752;23.576;2024-03-02T02:21:15;8.30;;;4.30;;
61356;SDS011;47227;46.752;23.576;2024-03-02T02:23:44;7.80;;;3.90;;
61356;SDS011;47227;46.752;23.576;2024-03-02T02:26:16;7.20;;;3.50;;
61356;SDS011;47227;46.752;23.576;2024-03-02T02:28:45;6.30;;;3.60;;
61356;SDS011;47227;46.752;23.576;2024-03-02T02:31:16;8.10;;;4.10;;
61356;SDS011;47227;46.752;23.576;2024-03-02T02:33:45;7.30;;;3.80;;
61356;SDS011;47227;46.752;23.576;2024-03-02T02:36:13;6.80;;;3.20;;
61356;SDS011;47227;46.752;23.576;2024-03-02T02:38:43;6.40;;;3.50;;
61356;SDS011;47227;46.752;23.576;2024-03-02T02:41:14;6.60;;;3.60;;
61356;SDS011;47227;46.752;23.576;2024-03-02T02:43:43;8.50;;;4.00;;
61356;SDS011;47227;46.752;23.576;2024-03-02T02:46:11;10.60;;;3.90;;
61356;SDS011;47227;46.752;23.576;2024-03-02T02:48:39;6.20;;;3.60;;
61356;SDS011;47227;46.752;23.576;2024-03-02T02:51:08;6.10;;;3.60;;
61356;SDS011;47227;46.752;23.576;2024-03-02T02:53:37;9.70;;;3.50;;
61356;SDS011;47227;46.752;23.576;2024-03-02T02:56:08;4.60;;;3.40;;
61356;SDS011;47227;46.752;23.576;2024-03-02T02:58:37;7.20;;;3.60;;
61356;SDS011;47227;46.752;23.576;2024-03-02T03:01:06;8.40;;;3.20;;
61356;SDS011;47227;46.752;23.576;2024-03-02T03:03:34;11.50;;;4.30;;
61356;SDS011;47227;46.752;23.576;2024-03-02T03:06:03;6.30;;;3.50;;
61356;SDS011;47227;46.752;23.576;2024-03-02T03:08:31;9.30;;;3.80;;
61356;SDS011;47227;46.752;23.576;2024-03-02T03:11:00;10.00;;;4.10;;
61356;SDS011;47227;46.752;23.576;2024-03-02T03:13:28;10.50;;;4.00;;
61356;SDS011;47227;46.752;23.576;2024-03-02T03:15:57;8.70;;;4.30;;
61356;SDS011;47227;46.752;23.576;2024-03-02T03:18:25;7.50;;;3.40;;
61356;SDS011;47227;46.752;23.576;2024-03-02T03:20:54;8.90;;;3.40;;
61356;SDS011;47227;46.752;23.576;2024-03-02T03:23:22;8.20;;;3.70;;
61356;SDS011;47227;46.752;23.576;2024-03-02T03:25:51;7.90;;;3.10;;
61356;SDS011;47227;46.752;23.576;2024-03-02T03:28:19;8.60;;;3.70;;
61356;SDS011;47227;46.752;23.576;2024-03-02T03:30:48;6.20;;;3.60;;
61356;SDS011;47227;46.752;23.576;2024-03-02T03:33:16;5.90;;;3.50;;
61356;SDS011;47227;46.752;23.576;2024-03-02T03:35:45;4.70;;;2.70;;
61356;SDS011;47227;46.752;23.576;2024-03-02T03:38:13;10.50;;;3.40;;
61356;SDS011;47227;46.752;23.576;2024-03-02T03:40:42;5.70;;;3.00;;
61356;SDS011;47227;46.752;23.576;2024-03-02T03:43:10;6.40;;;2.90;;
61356;SDS011;47227;46.752;23.576;2024-03-02T03:45:39;6.20;;;3.60;;
61356;SDS011;47227;46.752;23.576;2024-03-02T03:48:07;5.40;;;3.10;;
61356;SDS011;47227;46.752;23.576;2024-03-02T03:50:37;6.40;;;2.50;;
61356;SDS011;47227;46.752;23.576;2024-03-02T03:53:06;5.60;;;2.80;;
61356;SDS011;47227;46.752;23.576;2024-03-02T03:55:34;9.60;;;3.00;;
61356;SDS011;47227;46.752;23.576;2024-03-02T03:58:03;5.90;;;2.80;;
61356;SDS011;47227;46.752;23.576;2024-03-02T04:00:31;5.90;;;2.90;;
61356;SDS011;47227;46.752;23.576;2024-03-02T04:03:00;5.20;;;2.50;;
61356;SDS011;47227;46.752;23.576;2024-03-02T04:05:28;7.40;;;3.30;;
61356;SDS011;47227;46.752;23.576;2024-03-02T04:07:57;3.50;;;2.60;;
61356;SDS011;47227;46.752;23.576;2024-03-02T04:10:25;4.70;;;2.00;;
61356;SDS011;47227;46.752;23.576;2024-03-02T04:12:53;8.20;;;2.70;;
61356;SDS011;47227;46.752;23.576;2024-03-02T04:15:23;5.40;;;2.50;;
61356;SDS011;47227;46.752;23.576;2024-03-02T04:17:51;4.20;;;2.20;;
61356;SDS011;47227;46.752;23.576;2024-03-02T04:20:20;7.80;;;2.30;;
61356;SDS011;47227;46.752;23.576;2024-03-02T04:22:49;3.80;;;1.90;;
61356;SDS011;47227;46.752;23.576;2024-03-02T04:25:17;4.00;;;2.10;;
61356;SDS011;47227;46.752;23.576;2024-03-02T04:27:46;4.10;;;2.10;;
61356;SDS011;47227;46.752;23.576;2024-03-02T04:30:15;5.20;;;2.10;;
61356;SDS011;47227;46.752;23.576;2024-03-02T04:32:43;6.50;;;2.00;;
61356;SDS011;47227;46.752;23.576;2024-03-02T04:35:14;6.00;;;2.00;;
61356;SDS011;47227;46.752;23.576;2024-03-02T04:37:43;4.10;;;2.00;;
61356;SDS011;47227;46.752;23.576;2024-03-02T04:40:12;3.70;;;2.00;;
61356;SDS011;47227;46.752;23.576;2024-03-02T04:42:40;4.30;;;2.00;;
61356;SDS011;47227;46.752;23.576;2024-03-02T04:45:09;3.20;;;2.10;;
61356;SDS011;47227;46.752;23.576;2024-03-02T04:47:37;4.20;;;2.70;;
61356;SDS011;47227;46.752;23.576;2024-03-02T04:50:06;5.10;;;2.20;;
61356;SDS011;47227;46.752;23.576;2024-03-02T04:52:35;5.10;;;1.90;;
61356;SDS011;47227;46.752;23.576;2024-03-02T04:55:04;3.00;;;2.20;;
61356;SDS011;47227;46.752;23.576;2024-03-02T04:57:51;6.50;;;2.30;;
61356;SDS011;47227;46.752;23.576;2024-03-02T05:00:23;3.80;;;2.30;;
61356;SDS011;47227;46.752;23.576;2024-03-02T05:02:52;5.30;;;2.50;;
61356;SDS011;47227;46.752;23.576;2024-03-02T05:05:20;4.10;;;2.40;;
61356;SDS011;47227;46.752;23.576;2024-03-02T05:07:48;4.50;;;2.50;;
61356;SDS011;47227;46.752;23.576;2024-03-02T05:10:17;6.90;;;2.80;;
61356;SDS011;47227;46.752;23.576;2024-03-02T05:12:45;7.60;;;2.40;;
61356;SDS011;47227;46.752;23.576;2024-03-02T05:15:14;7.40;;;2.50;;
61356;SDS011;47227;46.752;23.576;2024-03-02T05:17:43;8.80;;;3.00;;
61356;SDS011;47227;46.752;23.576;2024-03-02T05:20:12;4.40;;;2.20;;
61356;SDS011;47227;46.752;23.576;2024-03-02T05:22:40;4.50;;;2.70;;
61356;SDS011;47227;46.752;23.576;2024-03-02T05:25:08;6.80;;;2.70;;
61356;SDS011;47227;46.752;23.576;2024-03-02T05:27:40;6.60;;;2.80;;
61356;SDS011;47227;46.752;23.576;2024-03-02T05:30:09;5.30;;;2.60;;
61356;SDS011;47227;46.752;23.576;2024-03-02T05:32:38;4.90;;;2.50;;
61356;SDS011;47227;46.752;23.576;2024-03-02T05:35:06;5.20;;;2.50;;
61356;SDS011;47227;46.752;23.576;2024-03-02T05:37:36;3.70;;;2.10;;
61356;SDS011;47227;46.752;23.576;2024-03-02T05:40:04;4.10;;;2.10;;
61356;SDS011;47227;46.752;23.576;2024-03-02T05:42:34;4.30;;;2.30;;
61356;SDS011;47227;46.752;23.576;2024-03-02T05:45:02;5.30;;;2.40;;
61356;SDS011;47227;46.752;23.576;2024-03-02T05:47:31;6.90;;;2.90;;
61356;SDS011;47227;46.752;23.576;2024-03-02T05:50:01;5.90;;;2.30;;
61356;SDS011;47227;46.752;23.576;2024-03-02T05:52:32;3.30;;;1.80;;
61356;SDS011;47227;46.752;23.576;2024-03-02T05:55:00;4.90;;;2.60;;
61356;SDS011;47227;46.752;23.576;2024-03-02T05:57:29;4.30;;;2.10;;
61356;SDS011;47227;46.752;23.576;2024-03-02T06:00:13;13.30;;;2.20;;
61356;SDS011;47227;46.752;23.576;2024-03-02T06:02:45;10.30;;;3.00;;
61356;SDS011;47227;46.752;23.576;2024-03-02T06:05:14;5.20;;;2.60;;
61356;SDS011;47227;46.752;23.576;2024-03-02T06:07:43;6.40;;;2.30;;
61356;SDS011;47227;46.752;23.576;2024-03-02T06:10:12;5.90;;;2.30;;
61356;SDS011;47227;46.752;23.576;2024-03-02T06:12:41;4.20;;;2.00;;
61356;SDS011;47227;46.752;23.576;2024-03-02T06:15:10;6.00;;;2.70;;
61356;SDS011;47227;46.752;23.576;2024-03-02T06:17:39;6.10;;;2.70;;
61356;SDS011;47227;46.752;23.576;2024-03-02T06:20:08;4.70;;;2.50;;
61356;SDS011;47227;46.752;23.576;2024-03-02T06:22:37;8.20;;;2.50;;
61356;SDS011;47227;46.752;23.576;2024-03-02T06:25:06;8.50;;;2.60;;
61356;SDS011;47227;46.752;23.576;2024-03-02T06:27:35;4.90;;;2.70;;
61356;SDS011;47227;46.752;23.576;2024-03-02T06:30:04;9.40;;;2.90;;
61356;SDS011;47227;46.752;23.576;2024-03-02T06:32:32;11.30;;;2.60;;
61356;SDS011;47227;46.752;23.576;2024-03-02T06:35:01;10.20;;;3.20;;
61356;SDS011;47227;46.752;23.576;2024-03-02T06:37:29;4.50;;;2.30;;
61356;SDS011;47227;46.752;23.576;2024-03-02T06:39:58;6.30;;;2.90;;
61356;SDS011;47227;46.752;23.576;2024-03-02T06:42:26;6.20;;;3.10;;
61356;SDS011;47227;46.752;23.576;2024-03-02T06:44:55;10.30;;;3.30;;
61356;SDS011;47227;46.752;23.576;2024-03-02T06:47:24;6.50;;;3.40;;
61356;SDS011;47227;46.752;23.576;2024-03-02T06:49:52;9.80;;;4.00;;
61356;SDS011;47227;46.752;23.576;2024-03-02T06:52:21;9.50;;;3.50;;
61356;SDS011;47227;46.752;23.576;2024-03-02T06:54:52;10.60;;;3.50;;
61356;SDS011;47227;46.752;23.576;2024-03-02T06:57:20;8.30;;;3.70;;
61356;SDS011;47227;46.752;23.576;2024-03-02T06:59:50;11.60;;;2.60;;
61356;SDS011;47227;46.752;23.576;2024-03-02T07:02:20;6.00;;;2.80;;
61356;SDS011;47227;46.752;23.576;2024-03-02T07:04:49;6.10;;;2.90;;
61356;SDS011;47227;46.752;23.576;2024-03-02T07:07:19;11.60;;;3.10;;
61356;SDS011;47227;46.752;23.576;2024-03-02T07:09:48;5.30;;;2.50;;
61356;SDS011;47227;46.752;23.576;2024-03-02T07:12:17;9.20;;;2.80;;
61356;SDS011;47227;46.752;23.576;2024-03-02T07:14:45;10.50;;;3.10;;
61356;SDS011;47227;46.752;23.576;2024-03-02T07:17:37;8.20;;;3.20;;
61356;SDS011;47227;46.752;23.576;2024-03-02T07:20:05;5.00;;;3.00;;
61356;SDS011;47227;46.752;23.576;2024-03-02T07:22:34;6.90;;;2.50;;
61356;SDS011;47227;46.752;23.576;2024-03-02T07:25:03;6.00;;;3.20;;
61356;SDS011;47227;46.752;23.576;2024-03-02T07:27:32;4.40;;;2.40;;
61356;SDS011;47227;46.752;23.576;2024-03-02T07:30:03;12.50;;;3.20;;
61356;SDS011;47227;46.752;23.576;2024-03-02T07:32:31;7.70;;;3.10;;
61356;SDS011;47227;46.752;23.576;2024-03-02T07:35:00;7.50;;;2.90;;
61356;SDS011;47227;46.752;23.576;2024-03-02T07:37:29;8.10;;;2.60;;
61356;SDS011;47227;46.752;23.576;2024-03-02T07:39:58;4.80;;;2.40;;
61356;SDS011;47227;46.752;23.576;2024-03-02T07:42:27;6.70;;;2.60;;
61356;SDS011;47227;46.752;23.576;2024-03-02T07:44:55;8.70;;;2.80;;
61356;SDS011;47227;46.752;23.576;2024-03-02T07:47:24;5.30;;;2.70;;
61356;SDS011;47227;46.752;23.576;2024-03-02T07:49:52;5.50;;;2.40;;
61356;SDS011;47227;46.752;23.576;2024-03-02T07:52:21;11.00;;;2.60;;
61356;SDS011;47227;46.752;23.576;2024-03-02T07:54:50;9.60;;;3.60;;
61356;SDS011;47227;46.752;23.576;2024-03-02T07:57:19;5.80;;;2.50;;
61356;SDS011;47227;46.752;23.576;2024-03-02T07:59:48;9.90;;;3.20;;
61356;SDS011;47227;46.752;23.576;2024-03-02T08:02:17;6.00;;;2.50;;
61356;SDS011;47227;46.752;23.576;2024-03-02T08:04:45;8.10;;;2.50;;
61356;SDS011;47227;46.752;23.576;2024-03-02T08:07:14;7.60;;;3.10;;
61356;SDS011;47227;46.752;23.576;2024-03-02T08:09:42;11.70;;;3.20;;
61356;SDS011;47227;46.752;23.576;2024-03-02T08:12:11;7.60;;;2.70;;
61356;SDS011;47227;46.752;23.576;2024-03-02T08:14:40;12.80;;;3.10;;
61356;SDS011;47227;46.752;23.576;2024-03-02T08:17:08;10.20;;;3.10;;
61356;SDS011;47227;46.752;23.576;2024-03-02T08:19:38;5.90;;;2.80;;
61356;SDS011;47227;46.752;23.576;2024-03-02T08:22:06;7.20;;;3.40;;
61356;SDS011;47227;46.752;23.576;2024-03-02T08:24:35;9.60;;;3.40;;
61356;SDS011;47227;46.752;23.576;2024-03-02T08:27:04;8.90;;;4.10;;
61356;SDS011;47227;46.752;23.576;2024-03-02T08:29:32;11.30;;;5.00;;
61356;SDS011;47227;46.752;23.576;2024-03-02T08:32:01;11.00;;;3.90;;
61356;SDS011;47227;46.752;23.576;2024-03-02T08:34:29;10.60;;;3.20;;
61356;SDS011;47227;46.752;23.576;2024-03-02T08:36:57;7.40;;;3.20;;
61356;SDS011;47227;46.752;23.576;2024-03-02T08:39:26;12.20;;;3.40;;
61356;SDS011;47227;46.752;23.576;2024-03-02T08:41:55;7.50;;;3.50;;
61356;SDS011;47227;46.752;23.576;2024-03-02T08:44:23;6.10;;;3.10;;
61356;SDS011;47227;46.752;23.576;2024-03-02T08:46:52;5.10;;;2.90;;
61356;SDS011;47227;46.752;23.576;2024-03-02T08:49:21;5.90;;;2.80;;
61356;SDS011;47227;46.752;23.576;2024-03-02T08:51:49;7.70;;;3.20;;
61356;SDS011;47227;46.752;23.576;2024-03-02T08:54:23;15.60;;;4.10;;
61356;SDS011;47227;46.752;23.576;2024-03-02T08:56:52;9.40;;;3.50;;
61356;SDS011;47227;46.752;23.576;2024-03-02T08:59:20;9.60;;;3.90;;
61356;SDS011;47227;46.752;23.576;2024-03-02T09:01:49;5.70;;;3.40;;
61356;SDS011;47227;46.752;23.576;2024-03-02T09:04:17;6.90;;;1.90;;
61356;SDS011;47227;46.752;23.576;2024-03-02T09:06:46;5.80;;;2.60;;
61356;SDS011;47227;46.752;23.576;2024-03-02T09:09:15;5.40;;;2.30;;
61356;SDS011;47227;46.752;23.576;2024-03-02T09:11:43;8.80;;;2.60;;
61356;SDS011;47227;46.752;23.576;2024-03-02T09:14:14;4.80;;;2.60;;
61356;SDS011;47227;46.752;23.576;2024-03-02T09:16:43;12.30;;;2.60;;
61356;SDS011;47227;46.752;23.576;2024-03-02T09:19:12;4.30;;;2.40;;
61356;SDS011;47227;46.752;23.576;2024-03-02T09:21:41;5.90;;;2.60;;
61356;SDS011;47227;46.752;23.576;2024-03-02T09:24:10;4.20;;;2.70;;
61356;SDS011;47227;46.752;23.576;2024-03-02T09:26:41;6.60;;;2.40;;
61356;SDS011;47227;46.752;23.576;2024-03-02T09:29:09;9.90;;;2.70;;
61356;SDS011;47227;46.752;23.576;2024-03-02T09:31:41;7.30;;;2.70;;
61356;SDS011;47227;46.752;23.576;2024-03-02T09:34:10;4.10;;;2.20;;
61356;SDS011;47227;46.752;23.576;2024-03-02T09:36:42;4.30;;;2.20;;
61356;SDS011;47227;46.752;23.576;2024-03-02T09:39:11;7.40;;;2.50;;
61356;SDS011;47227;46.752;23.576;2024-03-02T09:41:39;15.20;;;2.50;;
61356;SDS011;47227;46.752;23.576;2024-03-02T09:44:09;5.20;;;2.70;;
61356;SDS011;47227;46.752;23.576;2024-03-02T09:46:38;6.20;;;2.40;;
61356;SDS011;47227;46.752;23.576;2024-03-02T09:49:06;12.30;;;3.00;;
61356;SDS011;47227;46.752;23.576;2024-03-02T09:51:35;9.90;;;2.80;;
61356;SDS011;47227;46.752;23.576;2024-03-02T09:54:05;14.30;;;3.60;;
61356;SDS011;47227;46.752;23.576;2024-03-02T09:56:49;9.20;;;2.80;;
61356;SDS011;47227;46.752;23.576;2024-03-02T09:59:19;8.00;;;3.20;;
61356;SDS011;47227;46.752;23.576;2024-03-02T10:01:55;14.80;;;3.10;;
61356;SDS011;47227;46.752;23.576;2024-03-02T10:04:26;8.40;;;2.90;;
61356;SDS011;47227;46.752;23.576;2024-03-02T10:07:12;8.10;;;2.50;;
61356;SDS011;47227;46.752;23.576;2024-03-02T10:09:43;4.90;;;2.80;;
61356;SDS011;47227;46.752;23.576;2024-03-02T10:12:16;8.10;;;2.80;;
61356;SDS011;47227;46.752;23.576;2024-03-02T10:14:45;8.20;;;2.50;;
61356;SDS011;47227;46.752;23.576;2024-03-02T10:17:17;8.50;;;2.60;;
61356;SDS011;47227;46.752;23.576;2024-03-02T10:19:46;4.50;;;2.50;;
61356;SDS011;47227;46.752;23.576;2024-03-02T10:22:14;7.40;;;2.80;;
61356;SDS011;47227;46.752;23.576;2024-03-02T10:24:43;14.10;;;3.10;;
61356;SDS011;47227;46.752;23.576;2024-03-02T10:27:17;8.10;;;3.10;;
61356;SDS011;47227;46.752;23.576;2024-03-02T10:29:50;9.80;;;3.10;;
61356;SDS011;47227;46.752;23.576;2024-03-02T10:32:19;6.00;;;3.10;;
61356;SDS011;47227;46.752;23.576;2024-03-02T10:34:50;11.40;;;3.50;;
61356;SDS011;47227;46.752;23.576;2024-03-02T10:37:19;12.90;;;3.80;;
61356;SDS011;47227;46.752;23.576;2024-03-02T10:39:49;10.20;;;3.30;;
61356;SDS011;47227;46.752;23.576;2024-03-02T10:42:20;6.10;;;2.80;;
61356;SDS011;47227;46.752;23.576;2024-03-02T10:44:50;7.00;;;4.30;;
61356;SDS011;47227;46.752;23.576;2024-03-02T10:47:20;7.80;;;3.20;;
61356;SDS011;47227;46.752;23.576;2024-03-02T10:49:50;9.50;;;3.10;;
61356;SDS011;47227;46.752;23.576;2024-03-02T10:52:21;5.50;;;3.10;;
61356;SDS011;47227;46.752;23.576;2024-03-02T10:54:51;5.50;;;3.20;;
61356;SDS011;47227;46.752;23.576;2024-03-02T10:57:21;10.60;;;3.40;;
61356;SDS011;47227;46.752;23.576;2024-03-02T10:59:55;9.60;;;3.60;;
61356;SDS011;47227;46.752;23.576;2024-03-02T11:02:28;14.80;;;3.10;;
61356;SDS011;47227;46.752;23.576;2024-03-02T11:04:59;12.80;;;3.40;;
61356;SDS011;47227;46.752;23.576;2024-03-02T11:07:35;7.40;;;3.30;;
61356;SDS011;47227;46.752;23.576;2024-03-02T11:10:06;5.30;;;3.20;;
61356;SDS011;47227;46.752;23.576;2024-03-02T11:12:44;5.70;;;3.20;;
61356;SDS011;47227;46.752;23.576;2024-03-02T11:15:27;11.80;;;3.40;;
61356;SDS011;47227;46.752;23.576;2024-03-02T11:17:56;10.20;;;3.60;;
61356;SDS011;47227;46.752;23.576;2024-03-02T11:20:26;7.10;;;3.90;;
61356;SDS011;47227;46.752;23.576;2024-03-02T11:22:56;7.40;;;3.50;;
61356;SDS011;47227;46.752;23.576;2024-03-02T11:25:26;9.90;;;3.30;;
61356;SDS011;47227;46.752;23.576;2024-03-02T11:33:04;5.40;;;3.40;;
61356;SDS011;47227;46.752;23.576;2024-03-02T11:35:42;9.20;;;3.70;;
61356;SDS011;47227;46.752;23.576;2024-03-02T11:38:14;9.70;;;3.50;;
61356;SDS011;47227;46.752;23.576;2024-03-02T11:40:43;11.00;;;3.50;;
61356;SDS011;47227;46.752;23.576;2024-03-02T11:43:12;7.00;;;3.40;;
61356;SDS011;47227;46.752;23.576;2024-03-02T11:45:41;8.80;;;2.90;;
61356;SDS011;47227;46.752;23.576;2024-03-02T11:48:14;7.40;;;3.40;;
61356;SDS011;47227;46.752;23.576;2024-03-02T11:50:47;5.70;;;3.30;;
61356;SDS011;47227;46.752;23.576;2024-03-02T11:53:18;6.40;;;4.00;;
61356;SDS011;47227;46.752;23.576;2024-03-02T11:55:48;10.70;;;4.80;;
61356;SDS011;47227;46.752;23.576;2024-03-02T11:58:17;7.50;;;3.90;;
61356;SDS011;47227;46.752;23.576;2024-03-02T12:00:46;10.00;;;3.80;;
61356;SDS011;47227;46.752;23.576;2024-03-02T12:03:15;8.60;;;4.70;;
61356;SDS011;47227;46.752;23.576;2024-03-02T12:05:43;10.40;;;4.00;;
61356;SDS011;47227;46.752;23.576;2024-03-02T12:08:12;9.20;;;4.00;;
61356;SDS011;47227;46.752;23.576;2024-03-02T12:10:40;14.40;;;4.90;;
61356;SDS011;47227;46.752;23.576;2024-03-02T12:13:09;9.40;;;4.30;;
61356;SDS011;47227;46.752;23.576;2024-03-02T12:15:39;9.10;;;5.10;;
61356;SDS011;47227;46.752;23.576;2024-03-02T12:18:08;13.20;;;6.60;;
61356;SDS011;47227;46.752;23.576;2024-03-02T12:20:38;10.00;;;6.00;;
61356;SDS011;47227;46.752;23.576;2024-03-02T12:23:06;15.70;;;6.00;;
61356;SDS011;47227;46.752;23.576;2024-03-02T12:25:35;11.70;;;4.70;;
61356;SDS011;47227;46.752;23.576;2024-03-02T12:28:04;14.80;;;5.30;;
61356;SDS011;47227;46.752;23.576;2024-03-02T12:30:34;11.30;;;4.80;;
61356;SDS011;47227;46.752;23.576;2024-03-02T12:33:04;9.70;;;3.80;;
61356;SDS011;47227;46.752;23.576;2024-03-02T12:35:33;8.80;;;3.60;;
61356;SDS011;47227;46.752;23.576;2024-03-02T12:38:01;7.50;;;3.70;;
61356;SDS011;47227;46.752;23.576;2024-03-02T12:40:30;9.60;;;4.10;;
61356;SDS011;47227;46.752;23.576;2024-03-02T12:43:00;6.60;;;3.30;;
61356;SDS011;47227;46.752;23.576;2024-03-02T12:45:29;6.10;;;3.40;;
61356;SDS011;47227;46.752;23.576;2024-03-02T12:47:59;7.20;;;3.70;;
61356;SDS011;47227;46.752;23.576;2024-03-02T12:50:28;8.70;;;3.90;;
61356;SDS011;47227;46.752;23.576;2024-03-02T12:52:56;5.60;;;3.30;;
61356;SDS011;47227;46.752;23.576;2024-03-02T12:55:25;6.00;;;3.20;;
61356;SDS011;47227;46.752;23.576;2024-03-02T12:57:54;11.40;;;4.10;;
61356;SDS011;47227;46.752;23.576;2024-03-02T13:00:23;7.50;;;3.60;;
61356;SDS011;47227;46.752;23.576;2024-03-02T13:02:51;5.40;;;2.90;;
61356;SDS011;47227;46.752;23.576;2024-03-02T13:05:20;9.30;;;3.60;;
61356;SDS011;47227;46.752;23.576;2024-03-02T13:07:49;7.40;;;3.30;;
61356;SDS011;47227;46.752;23.576;2024-03-02T13:10:18;6.10;;;4.00;;
61356;SDS011;47227;46.752;23.576;2024-03-02T13:12:47;6.80;;;4.00;;
61356;SDS011;47227;46.752;23.576;2024-03-02T13:15:15;5.10;;;3.40;;
61356;SDS011;47227;46.752;23.576;2024-03-02T13:17:45;7.70;;;4.00;;
61356;SDS011;47227;46.752;23.576;2024-03-02T13:20:14;9.50;;;4.80;;
61356;SDS011;47227;46.752;23.576;2024-03-02T13:22:43;4.70;;;3.60;;
61356;SDS011;47227;46.752;23.576;2024-03-02T13:25:11;9.40;;;4.20;;
61356;SDS011;47227;46.752;23.576;2024-03-02T13:27:40;7.50;;;4.80;;
61356;SDS011;47227;46.752;23.576;2024-03-02T13:30:09;12.00;;;4.60;;
61356;SDS011;47227;46.752;23.576;2024-03-02T13:32:38;6.40;;;4.20;;
61356;SDS011;47227;46.752;23.576;2024-03-02T13:35:06;6.80;;;3.50;;
61356;SDS011;47227;46.752;23.576;2024-03-02T13:37:35;7.30;;;3.70;;
61356;SDS011;47227;46.752;23.576;2024-03-02T13:40:06;8.90;;;4.10;;
61356;SDS011;47227;46.752;23.576;2024-03-02T13:42:41;7.80;;;4.20;;
61356;SDS011;47227;46.752;23.576;2024-03-02T13:45:09;10.10;;;4.80;;
61356;SDS011;47227;46.752;23.576;2024-03-02T13:47:38;7.90;;;4.10;;
61356;SDS011;47227;46.752;23.576;2024-03-02T13:50:06;9.90;;;3.90;;
61356;SDS011;47227;46.752;23.576;2024-03-02T13:52:35;7.60;;;4.20;;
61356;SDS011;47227;46.752;23.576;2024-03-02T13:55:04;9.20;;;5.40;;
61356;SDS011;47227;46.752;23.576;2024-03-02T13:57:33;10.30;;;5.70;;
61356;SDS011;47227;46.752;23.576;2024-03-02T14:00:02;12.80;;;5.50;;
61356;SDS011;47227;46.752;23.576;2024-03-02T14:02:39;13.50;;;6.50;;
61356;SDS011;47227;46.752;23.576;2024-03-02T14:05:08;14.50;;;6.20;;
61356;SDS011;47227;46.752;23.576;2024-03-02T14:07:43;9.50;;;5.70;;
61356;SDS011;47227;46.752;23.576;2024-03-02T14:10:12;11.40;;;6.20;;
61356;SDS011;47227;46.752;23.576;2024-03-02T14:12:41;13.70;;;7.30;;
61356;SDS011;47227;46.752;23.576;2024-03-02T14:15:09;20.20;;;7.40;;
61356;SDS011;47227;46.752;23.576;2024-03-02T14:17:38;21.20;;;7.70;;
61356;SDS011;47227;46.752;23.576;2024-03-02T14:20:07;12.90;;;7.60;;
61356;SDS011;47227;46.752;23.576;2024-03-02T14:22:38;15.90;;;7.40;;
61356;SDS011;47227;46.752;23.576;2024-03-02T14:25:07;12.40;;;7.40;;
61356;SDS011;47227;46.752;23.576;2024-03-02T14:27:36;10.40;;;8.00;;
61356;SDS011;47227;46.752;23.576;2024-03-02T14:30:24;20.60;;;9.20;;
61356;SDS011;47227;46.752;23.576;2024-03-02T14:32:53;18.40;;;7.80;;
61356;SDS011;47227;46.752;23.576;2024-03-02T14:35:21;18.70;;;8.80;;
61356;SDS011;47227;46.752;23.576;2024-03-02T14:37:50;15.50;;;7.10;;
61356;SDS011;47227;46.752;23.576;2024-03-02T14:40:19;11.60;;;6.70;;
61356;SDS011;47227;46.752;23.576;2024-03-02T14:42:49;19.70;;;8.60;;
61356;SDS011;47227;46.752;23.576;2024-03-02T14:45:18;12.40;;;7.30;;
61356;SDS011;47227;46.752;23.576;2024-03-02T14:47:46;13.30;;;7.00;;
61356;SDS011;47227;46.752;23.576;2024-03-02T14:50:15;19.30;;;6.40;;
61356;SDS011;47227;46.752;23.576;2024-03-02T14:52:44;11.50;;;6.00;;